sensor_id;sensor_type;location;lat;lon;timestamp;temperature;humidity
18694;DHT22;9477;51.414;10.362;2023-05-10T00:01:38;17.50;50.20
18694;DHT22;9477;51.414;10.362;2023-05-10T00:03:40;17.50;50.30
18694;DHT22;9477;51.414;10.362;2023-05-10T00:05:43;17.50;50.20
18694;DHT22;9477;51.414;10.362;2023-05-10T00:07:46;17.50;50.20
18694;DHT22;9477;51.414;10.362;2023-05-10T00:09:49;17.50;50.40
18694;DHT22;9477;51.414;10.362;2023-05-10T00:11:52;17.50;50.50
18694;DHT22;9477;51.414;10.362;2023-05-10T00:13:55;17.40;50.50
18694;DHT22;9477;51.414;10.362;2023-05-10T00:15:57;17.40;50.50
18694;DHT22;9477;51.414;10.362;2023-05-10T00:18:02;17.50;50.50
18694;DHT22;9477;51.414;10.362;2023-05-10T00:20:06;17.50;50.70
18694;DHT22;9477;51.414;10.362;2023-05-10T00:22:09;17.40;50.60
18694;DHT22;9477;51.414;10.362;2023-05-10T00:24:12;17.50;50.70
18694;DHT22;9477;51.414;10.362;2023-05-10T00:26:14;17.60;50.70
18694;DHT22;9477;51.414;10.362;2023-05-10T00:28:18;17.60;50.80
18694;DHT22;9477;51.414;10.362;2023-05-10T00:30:21;17.60;50.90
18694;DHT22;9477;51.414;10.362;2023-05-10T00:32:23;17.60;51.00
18694;DHT22;9477;51.414;10.362;2023-05-10T00:34:28;17.50;50.90
18694;DHT22;9477;51.414;10.362;2023-05-10T00:36:30;17.60;51.50
18694;DHT22;9477;51.414;10.362;2023-05-10T00:38:34;17.60;51.00
18694;DHT22;9477;51.414;10.362;2023-05-10T00:40:36;17.60;51.10
18694;DHT22;9477;51.414;10.362;2023-05-10T00:42:39;17.60;51.10
18694;DHT22;9477;51.414;10.362;2023-05-10T00:44:42;17.60;51.10
18694;DHT22;9477;51.414;10.362;2023-05-10T00:46:45;17.60;51.10
18694;DHT22;9477;51.414;10.362;2023-05-10T00:48:48;17.60;51.20
18694;DHT22;9477;51.414;10.362;2023-05-10T00:50:53;17.60;51.30
18694;DHT22;9477;51.414;10.362;2023-05-10T00:52:55;17.60;51.30
18694;DHT22;9477;51.414;10.362;2023-05-10T00:54:59;17.50;51.30
18694;DHT22;9477;51.414;10.362;2023-05-10T00:57:02;17.50;51.80
18694;DHT22;9477;51.414;10.362;2023-05-10T00:59:05;17.50;51.30
18694;DHT22;9477;51.414;10.362;2023-05-10T01:01:08;17.60;51.50
18694;DHT22;9477;51.414;10.362;2023-05-10T01:03:12;17.30;52.20
18694;DHT22;9477;51.414;10.362;2023-05-10T01:05:15;17.20;52.30
18694;DHT22;9477;51.414;10.362;2023-05-10T01:07:20;17.30;52.70
18694;DHT22;9477;51.414;10.362;2023-05-10T01:09:23;17.20;52.90
18694;DHT22;9477;51.414;10.362;2023-05-10T01:11:28;17.20;52.80
18694;DHT22;9477;51.414;10.362;2023-05-10T01:13:33;17.20;52.80
18694;DHT22;9477;51.414;10.362;2023-05-10T01:15:36;17.30;52.80
18694;DHT22;9477;51.414;10.362;2023-05-10T01:17:40;17.30;52.70
18694;DHT22;9477;51.414;10.362;2023-05-10T01:19:45;17.40;52.80
18694;DHT22;9477;51.414;10.362;2023-05-10T01:21:53;17.40;52.80
18694;DHT22;9477;51.414;10.362;2023-05-10T01:24:24;17.50;52.90
18694;DHT22;9477;51.414;10.362;2023-05-10T01:29:19;17.50;52.70
18694;DHT22;9477;51.414;10.362;2023-05-10T01:31:33;17.40;52.60
18694;DHT22;9477;51.414;10.362;2023-05-10T01:33:47;17.40;52.60
18694;DHT22;9477;51.414;10.362;2023-05-10T01:35:55;17.40;52.60
18694;DHT22;9477;51.414;10.362;2023-05-10T01:38:05;17.40;52.50
18694;DHT22;9477;51.414;10.362;2023-05-10T01:40:17;17.50;52.50
18694;DHT22;9477;51.414;10.362;2023-05-10T01:42:23;17.50;52.50
18694;DHT22;9477;51.414;10.362;2023-05-10T01:44:31;17.50;52.50
18694;DHT22;9477;51.414;10.362;2023-05-10T01:46:39;17.50;52.70
18694;DHT22;9477;51.414;10.362;2023-05-10T01:48:47;17.50;52.80
18694;DHT22;9477;51.414;10.362;2023-05-10T01:50:51;17.50;52.70
18694;DHT22;9477;51.414;10.362;2023-05-10T01:52:57;17.60;53.40
18694;DHT22;9477;51.414;10.362;2023-05-10T01:55:02;17.50;52.70
18694;DHT22;9477;51.414;10.362;2023-05-10T01:57:08;17.50;52.90
18694;DHT22;9477;51.414;10.362;2023-05-10T01:59:17;17.50;53.00
18694;DHT22;9477;51.414;10.362;2023-05-10T02:01:21;17.50;53.10
18694;DHT22;9477;51.414;10.362;2023-05-10T02:03:25;17.40;52.90
18694;DHT22;9477;51.414;10.362;2023-05-10T02:05:32;17.50;53.00
18694;DHT22;9477;51.414;10.362;2023-05-10T02:07:36;17.50;53.20
18694;DHT22;9477;51.414;10.362;2023-05-10T02:09:40;17.50;53.20
18694;DHT22;9477;51.414;10.362;2023-05-10T02:11:44;17.50;53.30
18694;DHT22;9477;51.414;10.362;2023-05-10T02:13:48;17.50;53.50
18694;DHT22;9477;51.414;10.362;2023-05-10T02:15:52;17.50;53.40
18694;DHT22;9477;51.414;10.362;2023-05-10T02:17:56;17.50;53.50
18694;DHT22;9477;51.414;10.362;2023-05-10T02:19:59;17.50;53.60
18694;DHT22;9477;51.414;10.362;2023-05-10T02:22:05;17.50;53.60
18694;DHT22;9477;51.414;10.362;2023-05-10T02:24:11;17.60;53.70
18694;DHT22;9477;51.414;10.362;2023-05-10T02:26:15;17.60;53.70
18694;DHT22;9477;51.414;10.362;2023-05-10T02:28:19;17.40;54.00
18694;DHT22;9477;51.414;10.362;2023-05-10T02:30:24;17.50;54.10
18694;DHT22;9477;51.414;10.362;2023-05-10T02:32:27;17.50;54.30
18694;DHT22;9477;51.414;10.362;2023-05-10T02:34:31;17.50;54.10
18694;DHT22;9477;51.414;10.362;2023-05-10T02:36:35;17.50;54.10
18694;DHT22;9477;51.414;10.362;2023-05-10T02:38:40;17.40;54.40
18694;DHT22;9477;51.414;10.362;2023-05-10T02:40:44;17.40;54.50
18694;DHT22;9477;51.414;10.362;2023-05-10T02:42:50;17.40;54.30
18694;DHT22;9477;51.414;10.362;2023-05-10T02:45:02;17.50;54.40
18694;DHT22;9477;51.414;10.362;2023-05-10T02:47:08;17.60;54.30
18694;DHT22;9477;51.414;10.362;2023-05-10T02:49:11;17.60;54.20
18694;DHT22;9477;51.414;10.362;2023-05-10T02:51:15;17.70;54.40
18694;DHT22;9477;51.414;10.362;2023-05-10T02:53:23;17.70;54.50
18694;DHT22;9477;51.414;10.362;2023-05-10T02:55:35;17.70;54.70
18694;DHT22;9477;51.414;10.362;2023-05-10T02:57:41;17.70;54.70
18694;DHT22;9477;51.414;10.362;2023-05-10T02:59:44;17.80;55.00
18694;DHT22;9477;51.414;10.362;2023-05-10T03:01:47;17.80;55.20
18694;DHT22;9477;51.414;10.362;2023-05-10T03:03:50;17.80;55.50
18694;DHT22;9477;51.414;10.362;2023-05-10T03:05:53;17.80;55.80
18694;DHT22;9477;51.414;10.362;2023-05-10T03:07:57;17.70;56.10
18694;DHT22;9477;51.414;10.362;2023-05-10T03:10:00;17.70;56.60
18694;DHT22;9477;51.414;10.362;2023-05-10T03:12:13;17.80;56.90
18694;DHT22;9477;51.414;10.362;2023-05-10T03:14:25;17.80;57.10
18694;DHT22;9477;51.414;10.362;2023-05-10T03:16:35;17.80;57.20
18694;DHT22;9477;51.414;10.362;2023-05-10T03:18:53;17.70;57.30
18694;DHT22;9477;51.414;10.362;2023-05-10T03:20:59;17.70;57.60
18694;DHT22;9477;51.414;10.362;2023-05-10T03:23:09;17.60;57.70
18694;DHT22;9477;51.414;10.362;2023-05-10T03:25:15;17.60;58.00
18694;DHT22;9477;51.414;10.362;2023-05-10T03:27:20;17.50;58.20
18694;DHT22;9477;51.414;10.362;2023-05-10T03:29:25;17.50;58.10
18694;DHT22;9477;51.414;10.362;2023-05-10T03:31:29;17.40;58.30
18694;DHT22;9477;51.414;10.362;2023-05-10T03:33:32;17.40;58.70
18694;DHT22;9477;51.414;10.362;2023-05-10T03:35:35;17.40;58.90
18694;DHT22;9477;51.414;10.362;2023-05-10T03:37:37;17.30;59.10
18694;DHT22;9477;51.414;10.362;2023-05-10T03:39:40;17.40;59.20
18694;DHT22;9477;51.414;10.362;2023-05-10T03:41:43;17.40;59.50
18694;DHT22;9477;51.414;10.362;2023-05-10T03:43:47;17.40;59.60
18694;DHT22;9477;51.414;10.362;2023-05-10T03:45:50;17.30;59.70
18694;DHT22;9477;51.414;10.362;2023-05-10T03:47:53;17.30;60.00
18694;DHT22;9477;51.414;10.362;2023-05-10T03:49:57;17.40;60.10
18694;DHT22;9477;51.414;10.362;2023-05-10T03:52:00;17.40;60.10
18694;DHT22;9477;51.414;10.362;2023-05-10T03:54:03;17.40;60.00
18694;DHT22;9477;51.414;10.362;2023-05-10T03:56:06;17.40;60.10
18694;DHT22;9477;51.414;10.362;2023-05-10T03:58:10;17.40;60.20
18694;DHT22;9477;51.414;10.362;2023-05-10T04:00:15;17.40;60.30
18694;DHT22;9477;51.414;10.362;2023-05-10T04:02:18;17.40;60.60
18694;DHT22;9477;51.414;10.362;2023-05-10T04:04:21;17.40;60.60
18694;DHT22;9477;51.414;10.362;2023-05-10T04:06:24;17.40;60.60
18694;DHT22;9477;51.414;10.362;2023-05-10T04:08:27;17.40;60.60
18694;DHT22;9477;51.414;10.362;2023-05-10T04:10:30;17.40;60.50
18694;DHT22;9477;51.414;10.362;2023-05-10T04:12:33;17.50;60.70
18694;DHT22;9477;51.414;10.362;2023-05-10T04:14:36;17.50;60.60
18694;DHT22;9477;51.414;10.362;2023-05-10T04:16:40;17.50;60.80
18694;DHT22;9477;51.414;10.362;2023-05-10T04:18:43;17.60;61.00
18694;DHT22;9477;51.414;10.362;2023-05-10T04:20:46;17.60;60.80
18694;DHT22;9477;51.414;10.362;2023-05-10T04:22:49;17.70;60.70
18694;DHT22;9477;51.414;10.362;2023-05-10T04:24:52;17.60;60.80
18694;DHT22;9477;51.414;10.362;2023-05-10T04:26:55;17.60;60.70
18694;DHT22;9477;51.414;10.362;2023-05-10T04:28:58;17.70;60.80
18694;DHT22;9477;51.414;10.362;2023-05-10T04:31:02;17.80;61.00
18694;DHT22;9477;51.414;10.362;2023-05-10T04:33:06;17.70;60.90
18694;DHT22;9477;51.414;10.362;2023-05-10T04:35:09;17.80;60.70
18694;DHT22;9477;51.414;10.362;2023-05-10T04:37:12;17.80;60.80
18694;DHT22;9477;51.414;10.362;2023-05-10T04:39:15;17.80;61.10
18694;DHT22;9477;51.414;10.362;2023-05-10T04:41:18;17.80;61.20
18694;DHT22;9477;51.414;10.362;2023-05-10T04:43:22;17.80;61.40
18694;DHT22;9477;51.414;10.362;2023-05-10T04:45:24;17.80;61.30
18694;DHT22;9477;51.414;10.362;2023-05-10T04:47:27;17.90;61.20
18694;DHT22;9477;51.414;10.362;2023-05-10T04:49:31;17.80;61.40
18694;DHT22;9477;51.414;10.362;2023-05-10T04:51:34;17.80;61.70
18694;DHT22;9477;51.414;10.362;2023-05-10T04:53:37;17.90;61.70
18694;DHT22;9477;51.414;10.362;2023-05-10T04:55:40;17.90;61.80
18694;DHT22;9477;51.414;10.362;2023-05-10T04:57:43;17.90;61.80
18694;DHT22;9477;51.414;10.362;2023-05-10T04:59:46;17.90;62.00
18694;DHT22;9477;51.414;10.362;2023-05-10T05:01:51;17.90;62.30
18694;DHT22;9477;51.414;10.362;2023-05-10T05:03:54;17.90;62.50
18694;DHT22;9477;51.414;10.362;2023-05-10T05:05:58;18.00;62.80
18694;DHT22;9477;51.414;10.362;2023-05-10T05:08:01;18.00;63.30
18694;DHT22;9477;51.414;10.362;2023-05-10T05:10:05;17.90;63.50
18694;DHT22;9477;51.414;10.362;2023-05-10T05:12:08;17.90;63.40
18694;DHT22;9477;51.414;10.362;2023-05-10T05:14:15;17.90;63.70
18694;DHT22;9477;51.414;10.362;2023-05-10T05:16:18;17.90;64.10
18694;DHT22;9477;51.414;10.362;2023-05-10T05:18:21;17.90;64.10
18694;DHT22;9477;51.414;10.362;2023-05-10T05:20:23;17.90;64.20
18694;DHT22;9477;51.414;10.362;2023-05-10T05:22:28;18.00;64.30
18694;DHT22;9477;51.414;10.362;2023-05-10T05:24:35;18.00;64.70
18694;DHT22;9477;51.414;10.362;2023-05-10T05:26:39;18.00;64.80
18694;DHT22;9477;51.414;10.362;2023-05-10T05:28:42;18.00;64.90
18694;DHT22;9477;51.414;10.362;2023-05-10T05:30:44;17.90;65.10
18694;DHT22;9477;51.414;10.362;2023-05-10T05:32:47;18.00;65.30
18694;DHT22;9477;51.414;10.362;2023-05-10T05:34:50;18.00;65.50
18694;DHT22;9477;51.414;10.362;2023-05-10T05:36:53;18.00;65.60
18694;DHT22;9477;51.414;10.362;2023-05-10T05:38:58;17.90;66.20
18694;DHT22;9477;51.414;10.362;2023-05-10T05:41:01;18.00;66.70
18694;DHT22;9477;51.414;10.362;2023-05-10T05:43:04;18.00;67.30
18694;DHT22;9477;51.414;10.362;2023-05-10T05:45:08;18.10;67.30
18694;DHT22;9477;51.414;10.362;2023-05-10T05:47:14;18.10;67.30
18694;DHT22;9477;51.414;10.362;2023-05-10T05:49:17;18.10;67.30
18694;DHT22;9477;51.414;10.362;2023-05-10T05:51:20;18.00;67.90
18694;DHT22;9477;51.414;10.362;2023-05-10T05:53:23;18.10;67.80
18694;DHT22;9477;51.414;10.362;2023-05-10T05:55:27;18.10;67.70
18694;DHT22;9477;51.414;10.362;2023-05-10T05:57:31;18.10;67.90
18694;DHT22;9477;51.414;10.362;2023-05-10T05:59:34;18.10;68.40
18694;DHT22;9477;51.414;10.362;2023-05-10T06:01:37;18.20;68.20
18694;DHT22;9477;51.414;10.362;2023-05-10T06:03:39;18.20;68.30
18694;DHT22;9477;51.414;10.362;2023-05-10T06:05:43;18.20;68.20
18694;DHT22;9477;51.414;10.362;2023-05-10T06:07:45;18.30;68.10
18694;DHT22;9477;51.414;10.362;2023-05-10T06:09:48;18.00;68.90
18694;DHT22;9477;51.414;10.362;2023-05-10T06:11:53;17.80;69.60
18694;DHT22;9477;51.414;10.362;2023-05-10T06:13:55;17.80;69.80
18694;DHT22;9477;51.414;10.362;2023-05-10T06:15:59;17.90;70.00
18694;DHT22;9477;51.414;10.362;2023-05-10T06:18:02;17.90;70.20
18694;DHT22;9477;51.414;10.362;2023-05-10T06:20:06;17.80;70.50
18694;DHT22;9477;51.414;10.362;2023-05-10T06:22:09;17.80;70.70
18694;DHT22;9477;51.414;10.362;2023-05-10T06:24:12;17.80;71.00
18694;DHT22;9477;51.414;10.362;2023-05-10T06:26:15;17.70;71.60
18694;DHT22;9477;51.414;10.362;2023-05-10T06:28:19;17.80;71.80
18694;DHT22;9477;51.414;10.362;2023-05-10T06:30:23;17.90;71.90
18694;DHT22;9477;51.414;10.362;2023-05-10T06:32:29;17.90;72.20
18694;DHT22;9477;51.414;10.362;2023-05-10T06:34:32;17.90;72.20
18694;DHT22;9477;51.414;10.362;2023-05-10T06:36:35;18.10;71.90
18694;DHT22;9477;51.414;10.362;2023-05-10T06:38:38;18.10;71.80
18694;DHT22;9477;51.414;10.362;2023-05-10T06:40:41;18.30;71.80
18694;DHT22;9477;51.414;10.362;2023-05-10T06:42:44;18.40;71.70
18694;DHT22;9477;51.414;10.362;2023-05-10T06:44:49;18.50;71.60
18694;DHT22;9477;51.414;10.362;2023-05-10T06:46:51;18.50;71.70
18694;DHT22;9477;51.414;10.362;2023-05-10T06:48:56;18.50;72.00
18694;DHT22;9477;51.414;10.362;2023-05-10T06:50:59;18.40;73.00
18694;DHT22;9477;51.414;10.362;2023-05-10T06:53:02;18.50;72.30
18694;DHT22;9477;51.414;10.362;2023-05-10T06:55:06;18.60;72.50
18694;DHT22;9477;51.414;10.362;2023-05-10T06:57:10;18.80;72.90
18694;DHT22;9477;51.414;10.362;2023-05-10T06:59:30;19.00;72.90
18694;DHT22;9477;51.414;10.362;2023-05-10T07:01:35;19.10;72.50
18694;DHT22;9477;51.414;10.362;2023-05-10T07:03:38;19.20;72.70
18694;DHT22;9477;51.414;10.362;2023-05-10T07:05:40;19.20;72.80
18694;DHT22;9477;51.414;10.362;2023-05-10T07:07:43;19.20;73.10
18694;DHT22;9477;51.414;10.362;2023-05-10T07:09:46;19.10;73.30
18694;DHT22;9477;51.414;10.362;2023-05-10T07:11:50;19.30;73.40
18694;DHT22;9477;51.414;10.362;2023-05-10T07:13:53;19.40;73.40
18694;DHT22;9477;51.414;10.362;2023-05-10T07:15:56;19.50;73.20
18694;DHT22;9477;51.414;10.362;2023-05-10T07:18:01;19.70;73.30
18694;DHT22;9477;51.414;10.362;2023-05-10T07:20:05;19.70;72.90
18694;DHT22;9477;51.414;10.362;2023-05-10T07:22:08;19.90;73.10
18694;DHT22;9477;51.414;10.362;2023-05-10T07:24:11;19.90;72.70
18694;DHT22;9477;51.414;10.362;2023-05-10T07:26:14;19.90;72.80
18694;DHT22;9477;51.414;10.362;2023-05-10T07:28:17;19.90;72.90
18694;DHT22;9477;51.414;10.362;2023-05-10T07:30:20;19.80;73.10
18694;DHT22;9477;51.414;10.362;2023-05-10T07:32:23;19.30;73.00
18694;DHT22;9477;51.414;10.362;2023-05-10T07:34:28;19.20;73.90
18694;DHT22;9477;51.414;10.362;2023-05-10T07:36:31;19.30;74.40
18694;DHT22;9477;51.414;10.362;2023-05-10T07:38:34;19.20;74.30
18694;DHT22;9477;51.414;10.362;2023-05-10T07:40:39;19.20;74.40
18694;DHT22;9477;51.414;10.362;2023-05-10T07:42:42;19.20;74.50
18694;DHT22;9477;51.414;10.362;2023-05-10T07:44:45;19.10;74.80
18694;DHT22;9477;51.414;10.362;2023-05-10T07:46:48;18.60;75.30
18694;DHT22;9477;51.414;10.362;2023-05-10T07:48:51;18.50;76.30
18694;DHT22;9477;51.414;10.362;2023-05-10T07:50:55;18.30;77.40
18694;DHT22;9477;51.414;10.362;2023-05-10T07:52:58;18.30;78.20
18694;DHT22;9477;51.414;10.362;2023-05-10T07:55:02;18.20;78.50
18694;DHT22;9477;51.414;10.362;2023-05-10T07:57:05;18.40;78.90
18694;DHT22;9477;51.414;10.362;2023-05-10T07:59:08;18.50;79.00
18694;DHT22;9477;51.414;10.362;2023-05-10T08:01:13;18.50;78.90
18694;DHT22;9477;51.414;10.362;2023-05-10T08:03:16;18.70;79.00
18694;DHT22;9477;51.414;10.362;2023-05-10T08:05:19;18.50;78.90
18694;DHT22;9477;51.414;10.362;2023-05-10T08:07:24;18.60;79.20
18694;DHT22;9477;51.414;10.362;2023-05-10T08:09:27;18.70;79.00
18694;DHT22;9477;51.414;10.362;2023-05-10T08:11:30;18.70;79.50
18694;DHT22;9477;51.414;10.362;2023-05-10T08:13:35;18.50;79.40
18694;DHT22;9477;51.414;10.362;2023-05-10T08:15:38;18.10;79.40
18694;DHT22;9477;51.414;10.362;2023-05-10T08:17:41;18.40;79.90
18694;DHT22;9477;51.414;10.362;2023-05-10T08:19:44;18.50;80.00
18694;DHT22;9477;51.414;10.362;2023-05-10T08:21:47;18.70;79.00
18694;DHT22;9477;51.414;10.362;2023-05-10T08:23:51;18.70;79.20
18694;DHT22;9477;51.414;10.362;2023-05-10T08:25:54;19.00;79.10
18694;DHT22;9477;51.414;10.362;2023-05-10T08:27:57;18.70;77.90
18694;DHT22;9477;51.414;10.362;2023-05-10T08:30:00;19.00;78.70
18694;DHT22;9477;51.414;10.362;2023-05-10T08:32:03;19.10;77.90
18694;DHT22;9477;51.414;10.362;2023-05-10T08:34:06;18.60;78.00
18694;DHT22;9477;51.414;10.362;2023-05-10T08:36:09;18.50;78.20
18694;DHT22;9477;51.414;10.362;2023-05-10T08:38:12;18.30;78.90
18694;DHT22;9477;51.414;10.362;2023-05-10T08:40:19;18.30;79.40
18694;DHT22;9477;51.414;10.362;2023-05-10T08:42:22;17.70;80.40
18694;DHT22;9477;51.414;10.362;2023-05-10T08:44:27;17.60;82.10
18694;DHT22;9477;51.414;10.362;2023-05-10T08:46:33;17.50;82.60
18694;DHT22;9477;51.414;10.362;2023-05-10T08:48:38;17.80;83.40
18694;DHT22;9477;51.414;10.362;2023-05-10T08:50:42;18.00;83.10
18694;DHT22;9477;51.414;10.362;2023-05-10T08:52:45;18.10;82.60
18694;DHT22;9477;51.414;10.362;2023-05-10T08:54:50;17.90;80.90
18694;DHT22;9477;51.414;10.362;2023-05-10T08:56:54;18.50;82.00
18694;DHT22;9477;51.414;10.362;2023-05-10T08:58:57;18.90;81.80
18694;DHT22;9477;51.414;10.362;2023-05-10T09:01:01;19.30;80.50
18694;DHT22;9477;51.414;10.362;2023-05-10T09:03:04;19.40;79.20
18694;DHT22;9477;51.414;10.362;2023-05-10T09:05:08;19.30;78.80
18694;DHT22;9477;51.414;10.362;2023-05-10T09:07:12;19.30;78.60
18694;DHT22;9477;51.414;10.362;2023-05-10T09:09:15;18.90;78.50
18694;DHT22;9477;51.414;10.362;2023-05-10T09:11:20;18.80;79.40
18694;DHT22;9477;51.414;10.362;2023-05-10T09:13:25;18.70;79.90
18694;DHT22;9477;51.414;10.362;2023-05-10T09:15:28;18.90;80.30
18694;DHT22;9477;51.414;10.362;2023-05-10T09:17:30;19.00;79.90
18694;DHT22;9477;51.414;10.362;2023-05-10T09:19:34;19.10;79.60
18694;DHT22;9477;51.414;10.362;2023-05-10T09:21:37;19.60;80.70
18694;DHT22;9477;51.414;10.362;2023-05-10T09:23:42;20.00;80.10
18694;DHT22;9477;51.414;10.362;2023-05-10T09:26:01;20.10;78.70
18694;DHT22;9477;51.414;10.362;2023-05-10T09:28:07;20.20;78.10
18694;DHT22;9477;51.414;10.362;2023-05-10T09:30:15;20.60;78.70
18694;DHT22;9477;51.414;10.362;2023-05-10T09:32:18;20.80;77.20
18694;DHT22;9477;51.414;10.362;2023-05-10T09:34:28;20.10;75.00
18694;DHT22;9477;51.414;10.362;2023-05-10T09:36:32;20.00;76.60
18694;DHT22;9477;51.414;10.362;2023-05-10T09:38:45;19.40;76.40
18694;DHT22;9477;51.414;10.362;2023-05-10T09:40:52;19.20;77.50
18694;DHT22;9477;51.414;10.362;2023-05-10T09:42:58;19.20;78.10
18694;DHT22;9477;51.414;10.362;2023-05-10T09:45:02;18.90;78.80
18694;DHT22;9477;51.414;10.362;2023-05-10T09:47:07;18.90;78.80
18694;DHT22;9477;51.414;10.362;2023-05-10T09:49:14;18.70;79.00
18694;DHT22;9477;51.414;10.362;2023-05-10T09:51:20;18.90;80.00
18694;DHT22;9477;51.414;10.362;2023-05-10T09:53:23;19.00;79.60
18694;DHT22;9477;51.414;10.362;2023-05-10T09:55:38;19.00;79.30
18694;DHT22;9477;51.414;10.362;2023-05-10T09:57:41;19.20;79.60
18694;DHT22;9477;51.414;10.362;2023-05-10T09:59:44;18.90;79.60
18694;DHT22;9477;51.414;10.362;2023-05-10T10:01:49;18.80;79.80
18694;DHT22;9477;51.414;10.362;2023-05-10T10:03:54;18.80;80.40
18694;DHT22;9477;51.414;10.362;2023-05-10T10:06:03;19.00;81.10
18694;DHT22;9477;51.414;10.362;2023-05-10T10:08:27;19.60;81.70
18694;DHT22;9477;51.414;10.362;2023-05-10T10:10:31;20.30;80.10
18694;DHT22;9477;51.414;10.362;2023-05-10T10:12:35;20.90;78.70
18694;DHT22;9477;51.414;10.362;2023-05-10T10:14:38;21.30;76.60
18694;DHT22;9477;51.414;10.362;2023-05-10T10:16:40;21.40;73.50
18694;DHT22;9477;51.414;10.362;2023-05-10T10:19:06;21.60;73.30
18694;DHT22;9477;51.414;10.362;2023-05-10T10:21:09;21.20;71.20
18694;DHT22;9477;51.414;10.362;2023-05-10T10:23:12;21.40;72.50
18694;DHT22;9477;51.414;10.362;2023-05-10T10:25:19;21.60;72.20
18694;DHT22;9477;51.414;10.362;2023-05-10T10:27:26;21.30;70.90
18694;DHT22;9477;51.414;10.362;2023-05-10T10:29:35;21.20;71.10
18694;DHT22;9477;51.414;10.362;2023-05-10T10:31:45;21.20;72.00
18694;DHT22;9477;51.414;10.362;2023-05-10T10:33:56;20.70;71.40
18694;DHT22;9477;51.414;10.362;2023-05-10T10:36:04;20.70;72.50
18694;DHT22;9477;51.414;10.362;2023-05-10T10:38:08;20.40;73.10
18694;DHT22;9477;51.414;10.362;2023-05-10T10:40:25;20.30;72.50
18694;DHT22;9477;51.414;10.362;2023-05-10T10:42:44;20.00;72.30
18694;DHT22;9477;51.414;10.362;2023-05-10T10:44:48;20.10;72.90
18694;DHT22;9477;51.414;10.362;2023-05-10T10:47:07;19.80;73.70
18694;DHT22;9477;51.414;10.362;2023-05-10T10:49:14;19.70;74.10
18694;DHT22;9477;51.414;10.362;2023-05-10T10:51:20;19.80;75.10
18694;DHT22;9477;51.414;10.362;2023-05-10T10:53:23;19.90;74.30
18694;DHT22;9477;51.414;10.362;2023-05-10T10:55:28;20.00;74.40
18694;DHT22;9477;51.414;10.362;2023-05-10T10:57:32;19.90;74.60
18694;DHT22;9477;51.414;10.362;2023-05-10T10:59:36;19.90;74.60
18694;DHT22;9477;51.414;10.362;2023-05-10T11:01:43;20.10;74.40
18694;DHT22;9477;51.414;10.362;2023-05-10T11:04:17;20.20;73.90
18694;DHT22;9477;51.414;10.362;2023-05-10T11:06:30;20.10;72.80
18694;DHT22;9477;51.414;10.362;2023-05-10T11:08:41;20.70;73.00
18694;DHT22;9477;51.414;10.362;2023-05-10T11:11:02;20.80;71.50
18694;DHT22;9477;51.414;10.362;2023-05-10T11:13:07;21.20;72.40
18694;DHT22;9477;51.414;10.362;2023-05-10T11:15:12;21.70;72.60
18694;DHT22;9477;51.414;10.362;2023-05-10T11:17:24;22.00;70.60
18694;DHT22;9477;51.414;10.362;2023-05-10T11:19:30;21.80;67.80
18694;DHT22;9477;51.414;10.362;2023-05-10T11:21:45;21.90;68.00
18694;DHT22;9477;51.414;10.362;2023-05-10T11:23:50;21.60;66.80
18694;DHT22;9477;51.414;10.362;2023-05-10T11:25:54;21.60;67.30
18694;DHT22;9477;51.414;10.362;2023-05-10T11:27:57;21.70;67.10
18694;DHT22;9477;51.414;10.362;2023-05-10T11:30:00;21.90;67.10
18694;DHT22;9477;51.414;10.362;2023-05-10T11:32:05;22.30;68.60
18694;DHT22;9477;51.414;10.362;2023-05-10T11:34:09;22.50;67.50
18694;DHT22;9477;51.414;10.362;2023-05-10T11:36:13;22.70;66.70
18694;DHT22;9477;51.414;10.362;2023-05-10T11:38:18;22.30;64.70
18694;DHT22;9477;51.414;10.362;2023-05-10T11:40:21;22.20;66.10
18694;DHT22;9477;51.414;10.362;2023-05-10T11:42:27;21.70;66.40
18694;DHT22;9477;51.414;10.362;2023-05-10T11:44:31;21.80;67.90
18694;DHT22;9477;51.414;10.362;2023-05-10T11:46:34;22.20;67.10
18694;DHT22;9477;51.414;10.362;2023-05-10T11:48:38;22.00;67.00
18694;DHT22;9477;51.414;10.362;2023-05-10T11:50:44;21.90;66.70
18694;DHT22;9477;51.414;10.362;2023-05-10T11:52:51;21.80;66.20
18694;DHT22;9477;51.414;10.362;2023-05-10T11:54:55;21.90;67.30
18694;DHT22;9477;51.414;10.362;2023-05-10T11:56:59;22.00;67.10
18694;DHT22;9477;51.414;10.362;2023-05-10T11:59:03;22.20;66.20
18694;DHT22;9477;51.414;10.362;2023-05-10T12:01:07;22.30;66.10
18694;DHT22;9477;51.414;10.362;2023-05-10T12:03:13;22.80;67.20
18694;DHT22;9477;51.414;10.362;2023-05-10T12:05:17;23.00;66.50
18694;DHT22;9477;51.414;10.362;2023-05-10T12:07:20;23.30;66.70
18694;DHT22;9477;51.414;10.362;2023-05-10T12:09:23;23.40;65.60
18694;DHT22;9477;51.414;10.362;2023-05-10T12:11:42;23.50;65.70
18694;DHT22;9477;51.414;10.362;2023-05-10T12:13:45;23.70;65.10
18694;DHT22;9477;51.414;10.362;2023-05-10T12:15:50;23.90;64.50
18694;DHT22;9477;51.414;10.362;2023-05-10T12:17:53;23.60;63.50
18694;DHT22;9477;51.414;10.362;2023-05-10T12:19:59;23.40;64.00
18694;DHT22;9477;51.414;10.362;2023-05-10T12:22:04;23.70;64.30
18694;DHT22;9477;51.414;10.362;2023-05-10T12:24:07;23.90;64.00
18694;DHT22;9477;51.414;10.362;2023-05-10T12:26:10;24.00;64.30
18694;DHT22;9477;51.414;10.362;2023-05-10T12:28:14;23.90;62.70
18694;DHT22;9477;51.414;10.362;2023-05-10T12:30:22;23.60;62.10
18694;DHT22;9477;51.414;10.362;2023-05-10T12:32:37;22.70;60.40
18694;DHT22;9477;51.414;10.362;2023-05-10T12:34:40;22.90;62.20
18694;DHT22;9477;51.414;10.362;2023-05-10T12:36:43;23.00;62.40
18694;DHT22;9477;51.414;10.362;2023-05-10T12:38:46;23.10;62.00
18694;DHT22;9477;51.414;10.362;2023-05-10T12:40:50;23.30;62.90
18694;DHT22;9477;51.414;10.362;2023-05-10T12:42:53;23.60;62.00
18694;DHT22;9477;51.414;10.362;2023-05-10T12:44:57;23.50;61.40
18694;DHT22;9477;51.414;10.362;2023-05-10T12:47:00;24.00;62.40
18694;DHT22;9477;51.414;10.362;2023-05-10T12:49:03;23.70;59.60
18694;DHT22;9477;51.414;10.362;2023-05-10T12:51:10;23.20;60.50
18694;DHT22;9477;51.414;10.362;2023-05-10T12:53:15;23.00;60.80
18694;DHT22;9477;51.414;10.362;2023-05-10T12:55:18;23.00;60.30
18694;DHT22;9477;51.414;10.362;2023-05-10T12:57:21;23.10;61.10
18694;DHT22;9477;51.414;10.362;2023-05-10T12:59:24;23.10;60.60
18694;DHT22;9477;51.414;10.362;2023-05-10T13:01:28;23.20;60.90
18694;DHT22;9477;51.414;10.362;2023-05-10T13:03:31;23.20;61.30
18694;DHT22;9477;51.414;10.362;2023-05-10T13:05:34;23.50;61.70
18694;DHT22;9477;51.414;10.362;2023-05-10T13:07:37;23.30;59.80
18694;DHT22;9477;51.414;10.362;2023-05-10T13:09:40;23.30;60.00
18694;DHT22;9477;51.414;10.362;2023-05-10T13:11:43;23.70;61.30